Terminal Aerodrome Forecast
Issued by NWS Omaha/Valley, NE

Home | Current Version | Previous Version | Text Only | Print | Product List | Glossary On
Versions: 1 2 3 4 5 6 7 8 9 10 11 12 13 14 15 16 17 18 19 20 21 22 23 24 25 26 27 28 29 30 31 32 33 34 35 36 37 38 39 40 41 42 43 44 45 46 47
000
FTUS43 KOAX 241131
TAFOMA
TAF
KOMA 241131Z 2412/2512 17004KT P6SM SCT025 OVC150
      TEMPO 2412/2416 BKN025
     FM241600 18006KT P6SM BKN035
     FM241700 16007KT P6SM BKN060
     FM242200 15012KT P6SM BKN100 PROB30 2423/2505 4SM -TSRA
      OVC040CB
     FM250500 15011KT P6SM -SHRA VCTS BKN080CB=

USA.gov is the U.S. government's official web portal to all federal, state and local government web resources and services.